Time;durP1;ratioP1;P1;durP2;ratioP2;P2;SDS_P1;SDS_P2;PMS_P1;PMS_P2;Temp;Humidity;BMP_temperature;BMP_pressure;BME280_temperature;BME280_humidity;BME280_pressure;Samples;Min_cycle;Max_cycle;Signal;HPM_P1;HPM_P2
2021/08/20 00:01:56;;;;;;;8.70;6.28;;;15.70;99.90;;;;;;5094904;28;20048;-74
2021/08/20 00:04:22;;;;;;;7.97;6.25;;;15.70;99.90;;;;;;5094469;28;20369;-74
2021/08/20 00:06:48;;;;;;;9.77;6.70;;;15.70;99.90;;;;;;5094307;28;20046;-74
2021/08/20 00:09:13;;;;;;;9.75;6.72;;;15.70;99.90;;;;;;5094137;28;20046;-74
2021/08/20 00:11:40;;;;;;;10.70;6.38;;;15.70;99.90;;;;;;5094327;28;20047;-74
2021/08/20 00:14:07;;;;;;;8.88;6.22;;;15.70;99.90;;;;;;5094175;28;20040;-74
2021/08/20 00:16:33;;;;;;;9.30;6.50;;;15.70;99.90;;;;;;5094264;28;20040;-74
2021/08/20 00:18:59;;;;;;;8.68;6.50;;;15.70;99.90;;;;;;5093798;28;20115;-74
2021/08/20 00:21:25;;;;;;;15.00;6.20;;;15.60;99.90;;;;;;5093067;28;20071;-74
2021/08/20 00:23:51;;;;;;;9.68;6.32;;;15.60;99.90;;;;;;5094050;28;20040;-74
2021/08/20 00:26:16;;;;;;;9.23;6.60;;;15.60;99.90;;;;;;5094254;28;20400;-74
2021/08/20 00:28:42;;;;;;;8.05;6.40;;;15.60;99.90;;;;;;5093733;28;20412;-74
2021/08/20 00:31:08;;;;;;;8.82;6.10;;;15.60;99.90;;;;;;5093890;28;20036;-74
2021/08/20 00:33:36;;;;;;;7.90;6.43;;;15.60;99.90;;;;;;5094019;28;20036;-74
2021/08/20 00:36:03;;;;;;;7.93;6.45;;;15.60;99.90;;;;;;5094191;28;20043;-74
2021/08/20 00:38:29;;;;;;;9.80;7.10;;;15.60;99.90;;;;;;5093801;28;20040;-74
2021/08/20 00:40:55;;;;;;;9.32;6.20;;;15.50;99.90;;;;;;5094040;28;20032;-74
2021/08/20 00:43:25;;;;;;;12.43;6.70;;;15.50;99.90;;;;;;5093960;28;20503;-74
2021/08/20 00:45:59;;;;;;;11.10;6.22;;;15.50;99.90;;;;;;5093960;28;20196;-74
2021/08/20 00:48:25;;;;;;;9.80;6.03;;;15.40;99.90;;;;;;5093662;28;20039;-74
2021/08/20 00:51:07;;;;;;;12.48;6.68;;;15.40;99.90;;;;;;5093283;28;20130;-74
2021/08/20 00:53:36;;;;;;;10.15;5.90;;;15.40;99.90;;;;;;5094020;28;20050;-74
2021/08/20 00:56:04;;;;;;;12.55;6.80;;;15.40;99.90;;;;;;5093504;28;20553;-74
2021/08/20 00:58:34;;;;;;;9.70;6.68;;;15.40;99.90;;;;;;5093281;28;20101;-74
2021/08/20 01:00:59;;;;;;;11.10;7.97;;;15.30;99.90;;;;;;5093538;28;20032;-74
2021/08/20 01:03:27;;;;;;;9.18;7.03;;;15.30;99.90;;;;;;5093401;28;20039;-74
2021/08/20 01:05:54;;;;;;;13.20;8.65;;;15.40;99.90;;;;;;5093438;28;20032;-74
2021/08/20 01:08:24;;;;;;;15.95;8.48;;;15.40;99.90;;;;;;5093739;28;20465;-74
2021/08/20 01:10:56;;;;;;;13.52;8.50;;;15.40;99.90;;;;;;5093314;28;20063;-74
2021/08/20 01:13:21;;;;;;;10.90;8.20;;;15.40;99.90;;;;;;5093355;28;20040;-74
2021/08/20 01:15:48;;;;;;;13.75;7.93;;;15.30;99.90;;;;;;5093237;28;20105;-74
2021/08/20 01:18:22;;;;;;;12.10;9.23;;;15.30;99.90;;;;;;5093224;28;20066;-74
2021/08/20 01:20:48;;;;;;;15.45;9.65;;;15.30;99.90;;;;;;5092923;28;20380;-74
2021/08/20 01:23:14;;;;;;;14.20;9.25;;;15.30;99.90;;;;;;5093427;28;20040;-74
2021/08/20 01:25:40;;;;;;;15.00;9.18;;;15.30;99.90;;;;;;5093155;28;20417;-74
2021/08/20 01:28:07;;;;;;;12.98;9.27;;;15.30;99.90;;;;;;5093205;28;20071;-74
2021/08/20 01:30:34;;;;;;;13.43;9.93;;;15.20;99.90;;;;;;5092635;28;20048;-74
2021/08/20 01:32:59;;;;;;;14.50;10.43;;;15.30;99.90;;;;;;5095661;28;20036;-74
2021/08/20 01:35:26;;;;;;;14.38;10.15;;;15.20;99.90;;;;;;5097368;28;20507;-74
2021/08/20 01:37:52;;;;;;;18.08;11.85;;;15.20;99.90;;;;;;5097320;28;20040;-74
2021/08/20 01:40:18;;;;;;;18.13;11.13;;;15.20;99.90;;;;;;5096903;28;20036;-74
2021/08/20 01:42:43;;;;;;;18.63;11.45;;;15.20;99.90;;;;;;5097322;28;20043;-74
2021/08/20 01:45:09;;;;;;;18.35;12.00;;;15.20;99.90;;;;;;5097509;28;20040;-74
2021/08/20 01:47:35;;;;;;;19.70;13.07;;;15.20;99.90;;;;;;5097454;28;20039;-74
2021/08/20 01:50:02;;;;;;;21.20;13.50;;;15.10;99.90;;;;;;5096787;28;20043;-74
2021/08/20 01:52:27;;;;;;;21.33;13.73;;;15.10;99.90;;;;;;5097008;28;20076;-74
2021/08/20 01:54:53;;;;;;;22.27;13.43;;;15.00;99.90;;;;;;5097170;28;20036;-74
2021/08/20 01:57:19;;;;;;;18.40;13.20;;;15.10;99.90;;;;;;5096992;28;20044;-74
2021/08/20 01:59:44;;;;;;;21.90;14.13;;;15.10;99.90;;;;;;5096776;28;20091;-74
2021/08/20 02:02:10;;;;;;;25.20;13.68;;;15.00;99.90;;;;;;5096763;28;20093;-74
2021/08/20 02:04:36;;;;;;;21.10;14.05;;;15.00;99.90;;;;;;5096918;28;20050;-74
2021/08/20 02:07:02;;;;;;;23.20;14.63;;;15.00;99.90;;;;;;5096716;28;20040;-74
2021/08/20 02:09:28;;;;;;;28.95;18.00;;;14.90;99.90;;;;;;5096682;28;20096;-74
2021/08/20 02:11:53;;;;;;;28.08;17.05;;;15.00;99.90;;;;;;5096595;28;20032;-74
2021/08/20 02:14:19;;;;;;;29.70;18.00;;;15.00;99.90;;;;;;5096490;28;20043;-74
2021/08/20 02:16:45;;;;;;;27.02;17.20;;;15.00;99.90;;;;;;5096674;28;20043;-74
2021/08/20 02:19:11;;;;;;;34.78;19.52;;;15.00;99.90;;;;;;5096209;28;20036;-74
2021/08/20 02:21:36;;;;;;;36.33;21.50;;;15.00;99.90;;;;;;5096699;28;20043;-74
2021/08/20 02:24:02;;;;;;;42.83;24.13;;;15.10;99.90;;;;;;5096519;28;20094;-74
2021/08/20 02:26:29;;;;;;;44.70;25.70;;;15.10;99.90;;;;;;5096623;28;20032;-74
2021/08/20 02:28:54;;;;;;;43.45;25.55;;;15.10;99.90;;;;;;5096091;28;20032;-74
2021/08/20 02:31:20;;;;;;;44.80;26.15;;;15.20;99.90;;;;;;5096676;28;20449;-74
2021/08/20 02:33:48;;;;;;;44.55;26.25;;;15.20;99.90;;;;;;5096504;28;20047;-74
2021/08/20 02:36:14;;;;;;;51.33;27.15;;;15.20;99.90;;;;;;5096303;28;20043;-74
2021/08/20 02:38:40;;;;;;;53.50;28.35;;;15.20;99.90;;;;;;5095813;28;20040;-74
2021/08/20 02:41:06;;;;;;;57.55;28.33;;;15.20;99.90;;;;;;5095863;28;20047;-74
2021/08/20 02:43:31;;;;;;;49.63;27.67;;;15.20;99.90;;;;;;5094955;28;20396;-74
2021/08/20 02:45:57;;;;;;;53.13;30.77;;;15.20;99.90;;;;;;5096061;28;20093;-74
2021/08/20 02:48:23;;;;;;;55.28;29.60;;;15.20;99.90;;;;;;5095996;28;20040;-75
2021/08/20 02:50:49;;;;;;;55.20;29.60;;;15.20;99.90;;;;;;5095618;28;20046;-74
2021/08/20 02:53:16;;;;;;;51.58;29.23;;;15.20;99.90;;;;;;5095798;28;20126;-75
2021/08/20 02:55:41;;;;;;;53.13;29.45;;;15.20;99.90;;;;;;5096173;28;20090;-74
2021/08/20 02:58:08;;;;;;;49.92;28.00;;;15.10;99.90;;;;;;5095741;28;20036;-74
2021/08/20 03:00:33;;;;;;;61.50;30.45;;;15.10;99.90;;;;;;5095796;28;20115;-74
2021/08/20 03:02:59;;;;;;;52.40;28.50;;;15.10;99.90;;;;;;5095768;28;20123;-74
2021/08/20 03:05:26;;;;;;;49.92;28.42;;;15.10;99.90;;;;;;5096038;28;20411;-74
2021/08/20 03:07:51;;;;;;;54.92;31.55;;;15.10;99.90;;;;;;5096127;28;20123;-74
2021/08/20 03:10:17;;;;;;;50.47;30.20;;;15.00;99.90;;;;;;5095340;28;20457;-74
2021/08/20 03:12:43;;;;;;;56.17;31.80;;;15.00;99.90;;;;;;5095435;28;20418;-75
2021/08/20 03:15:09;;;;;;;50.85;29.65;;;15.00;99.90;;;;;;5095453;28;20036;-74
2021/08/20 03:17:35;;;;;;;61.25;29.63;;;15.00;99.90;;;;;;5095645;28;20093;-75
2021/08/20 03:20:00;;;;;;;66.55;33.33;;;15.00;99.90;;;;;;5095131;28;20044;-75
2021/08/20 03:22:26;;;;;;;60.33;30.15;;;15.00;99.90;;;;;;5095432;28;20046;-74
2021/08/20 03:24:52;;;;;;;57.88;32.30;;;15.00;99.90;;;;;;5095202;28;20071;-74
2021/08/20 03:27:18;;;;;;;64.03;32.85;;;15.00;99.90;;;;;;5095184;28;20071;-74
2021/08/20 03:29:43;;;;;;;59.25;33.83;;;15.00;99.90;;;;;;5094975;28;20039;-74
2021/08/20 03:32:09;;;;;;;64.78;32.78;;;15.00;99.90;;;;;;5095039;28;20098;-74
2021/08/20 03:34:35;;;;;;;58.88;32.65;;;15.00;99.90;;;;;;5095155;28;20047;-75
2021/08/20 03:37:00;;;;;;;67.50;35.03;;;15.00;99.90;;;;;;5094973;28;20043;-74
2021/08/20 03:39:26;;;;;;;57.47;34.05;;;15.00;99.90;;;;;;5094824;28;20438;-74
2021/08/20 03:41:52;;;;;;;57.85;32.33;;;15.00;99.90;;;;;;5094947;28;20051;-74
2021/08/20 03:44:18;;;;;;;59.80;31.25;;;15.00;99.90;;;;;;5095511;28;20032;-74
2021/08/20 03:46:43;;;;;;;63.55;31.52;;;15.00;99.90;;;;;;5095433;28;20036;-74
2021/08/20 03:49:09;;;;;;;53.97;31.10;;;14.90;99.90;;;;;;5094584;28;20044;-75
2021/08/20 03:51:35;;;;;;;66.22;33.20;;;15.00;99.90;;;;;;5094686;28;20032;-75
2021/08/20 03:54:00;;;;;;;55.33;31.50;;;14.90;99.90;;;;;;5094901;28;20476;-75
2021/08/20 03:56:26;;;;;;;57.65;31.83;;;14.90;99.90;;;;;;5094624;28;20036;-74
2021/08/20 03:58:53;;;;;;;58.90;32.55;;;14.90;99.90;;;;;;5094210;28;20446;-75
2021/08/20 04:01:19;;;;;;;57.10;33.45;;;14.90;99.90;;;;;;5094575;28;20067;-74
2021/08/20 04:03:45;;;;;;;55.85;32.53;;;14.90;99.90;;;;;;5094414;28;20473;-74
2021/08/20 04:06:11;;;;;;;58.95;33.00;;;15.00;99.90;;;;;;5094545;28;20123;-74
2021/08/20 04:08:40;;;;;;;58.50;33.42;;;14.90;99.90;;;;;;5094238;28;20040;-75
2021/08/20 04:11:12;;;;;;;63.10;34.47;;;14.90;99.90;;;;;;5094706;28;20043;-74
2021/08/20 04:13:39;;;;;;;61.47;33.27;;;14.90;99.90;;;;;;5094107;28;20561;-75
2021/08/20 04:16:04;;;;;;;59.10;31.88;;;15.00;99.90;;;;;;5094248;28;20036;-74
2021/08/20 04:18:30;;;;;;;59.55;32.28;;;15.00;99.90;;;;;;5093894;28;20084;-75
2021/08/20 04:20:56;;;;;;;62.10;31.88;;;14.90;99.90;;;;;;5094077;28;20048;-75
2021/08/20 04:23:21;;;;;;;59.92;31.83;;;15.00;99.90;;;;;;5094203;28;20036;-75
2021/08/20 04:25:47;;;;;;;60.92;32.08;;;14.90;99.90;;;;;;5094142;28;20039;-75
2021/08/20 04:28:13;;;;;;;52.65;31.58;;;14.90;99.90;;;;;;5094050;28;20036;-74
2021/08/20 04:30:39;;;;;;;66.97;33.08;;;14.80;99.90;;;;;;5093420;28;20040;-75
2021/08/20 04:33:04;;;;;;;53.58;29.88;;;14.80;99.90;;;;;;5094512;28;20036;-75
2021/08/20 04:35:30;;;;;;;54.22;30.02;;;14.80;99.90;;;;;;5094101;28;20385;-74
2021/08/20 04:37:56;;;;;;;55.10;30.98;;;14.80;99.90;;;;;;5094152;28;20479;-74
2021/08/20 04:40:23;;;;;;;55.80;31.73;;;14.80;99.90;;;;;;5093667;28;20119;-75
2021/08/20 04:42:49;;;;;;;62.00;34.08;;;14.80;99.90;;;;;;5093666;28;20036;-74
2021/08/20 04:45:16;;;;;;;56.80;31.17;;;14.80;99.90;;;;;;5093810;28;20031;-75
2021/08/20 04:47:43;;;;;;;63.15;34.28;;;14.80;99.90;;;;;;5093789;28;20040;-75
2021/08/20 04:50:10;;;;;;;59.40;32.58;;;14.80;99.90;;;;;;5093537;28;20047;-75
2021/08/20 04:52:35;;;;;;;54.35;32.67;;;14.80;99.90;;;;;;5093835;28;20458;-75
2021/08/20 04:55:01;;;;;;;60.72;32.45;;;14.80;99.90;;;;;;5093631;28;20032;-75
2021/08/20 04:57:27;;;;;;;56.90;31.52;;;14.80;99.90;;;;;;5093575;28;20076;-74
2021/08/20 04:59:56;;;;;;;59.80;33.75;;;14.80;99.90;;;;;;5093297;28;20047;-75
2021/08/20 05:02:22;;;;;;;59.15;32.13;;;14.80;99.90;;;;;;5093313;28;20036;-74
2021/08/20 05:04:47;;;;;;;65.72;35.55;;;14.80;99.90;;;;;;5093399;28;20165;-74
2021/08/20 05:07:14;;;;;;;60.47;32.92;;;14.80;99.90;;;;;;5092692;28;20123;-74
2021/08/20 05:09:40;;;;;;;65.85;35.50;;;14.90;99.90;;;;;;5091884;28;20074;-75
2021/08/20 05:12:13;;;;;;;57.15;32.20;;;14.90;99.90;;;;;;5093335;28;20047;-75
2021/08/20 05:14:41;;;;;;;63.75;35.03;;;15.00;99.90;;;;;;5093223;28;20036;-75
2021/08/20 05:17:07;;;;;;;61.17;32.67;;;15.00;99.90;;;;;;5093051;28;20549;-74
2021/08/20 05:19:33;;;;;;;60.10;33.20;;;15.10;99.90;;;;;;5091501;28;20048;-74
2021/08/20 05:21:58;;;;;;;52.35;31.98;;;15.20;99.90;;;;;;5093842;28;20043;-75
2021/08/20 05:24:24;;;;;;;67.72;35.85;;;15.20;99.90;;;;;;5093434;28;20040;-74
2021/08/20 05:26:50;;;;;;;50.58;31.23;;;15.30;99.90;;;;;;5093314;28;20112;-75
2021/08/20 05:29:15;;;;;;;56.00;33.17;;;15.40;99.90;;;;;;5092762;28;20040;-74
2021/08/20 05:31:41;;;;;;;53.47;31.20;;;15.50;99.90;;;;;;5093273;28;20036;-75
2021/08/20 05:34:07;;;;;;;49.55;31.35;;;15.60;99.90;;;;;;5093215;28;20040;-75
2021/08/20 05:36:32;;;;;;;50.58;31.35;;;15.80;99.90;;;;;;5093184;28;20081;-75
2021/08/20 05:38:58;;;;;;;48.30;29.15;;;15.90;99.90;;;;;;5092719;28;20115;-75
2021/08/20 05:41:24;;;;;;;48.55;30.05;;;15.90;99.90;;;;;;5092897;28;20040;-75
2021/08/20 05:43:52;;;;;;;51.38;31.05;;;15.90;99.90;;;;;;5092960;28;20036;-75
2021/08/20 05:46:18;;;;;;;53.33;33.05;;;16.00;99.90;;;;;;5093514;28;20123;-75
2021/08/20 05:48:44;;;;;;;53.30;30.77;;;16.20;99.90;;;;;;5092838;28;20044;-75
2021/08/20 05:51:10;;;;;;;52.13;31.13;;;16.30;99.90;;;;;;5092938;28;20044;-75
2021/08/20 05:53:36;;;;;;;43.45;28.00;;;16.50;99.90;;;;;;5092828;28;20036;-75
2021/08/20 05:56:02;;;;;;;51.78;31.10;;;16.60;99.90;;;;;;5093710;28;20047;-75
2021/08/20 05:58:30;;;;;;;55.00;31.50;;;16.60;99.90;;;;;;5092282;28;20032;-75
2021/08/20 06:00:56;;;;;;;50.53;30.45;;;16.70;99.90;;;;;;5092768;28;20077;-75
2021/08/20 06:03:22;;;;;;;50.88;31.05;;;16.80;99.90;;;;;;5092809;28;20044;-75
2021/08/20 06:05:48;;;;;;;45.75;29.52;;;16.90;99.90;;;;;;5092782;28;20396;-75
2021/08/20 06:08:15;;;;;;;41.90;26.52;;;16.90;99.90;;;;;;5092737;28;20400;-75
2021/08/20 06:10:45;;;;;;;40.15;28.02;;;16.90;99.90;;;;;;5092302;28;20094;-75
2021/08/20 06:13:16;;;;;;;49.05;29.17;;;16.70;99.90;;;;;;5093134;28;20094;-75
2021/08/20 06:15:48;;;;;;;45.80;28.95;;;16.50;99.90;;;;;;5093009;28;20388;-75
2021/08/20 06:18:13;;;;;;;45.55;29.35;;;16.40;99.90;;;;;;5093654;28;20040;-75
2021/08/20 06:20:39;;;;;;;45.90;30.75;;;16.30;99.90;;;;;;5096037;28;20431;-75
2021/08/20 06:23:05;;;;;;;45.60;30.40;;;16.30;99.90;;;;;;5096381;28;20036;-75
2021/08/20 06:25:30;;;;;;;49.80;31.02;;;16.30;99.90;;;;;;5096363;28;20040;-75
2021/08/20 06:27:56;;;;;;;51.72;32.13;;;16.20;99.90;;;;;;5096389;28;20075;-75
2021/08/20 06:30:22;;;;;;;50.60;31.80;;;16.20;99.90;;;;;;5096048;28;20527;-75
2021/08/20 06:32:47;;;;;;;48.40;30.98;;;16.40;99.90;;;;;;5096258;28;20062;-75
2021/08/20 06:35:13;;;;;;;50.92;30.17;;;16.50;99.90;;;;;;5096420;28;20032;-75
2021/08/20 06:37:39;;;;;;;52.53;29.35;;;16.60;99.90;;;;;;5096303;28;20048;-75
2021/08/20 06:40:05;;;;;;;48.50;29.88;;;16.70;99.90;;;;;;5095769;28;20123;-75
2021/08/20 06:42:31;;;;;;;46.35;28.50;;;16.60;99.90;;;;;;5096189;28;20169;-75
2021/08/20 06:44:57;;;;;;;48.83;29.65;;;16.70;99.90;;;;;;5096099;28;20107;-76
2021/08/20 06:47:22;;;;;;;42.53;26.83;;;16.70;99.90;;;;;;5096104;28;20036;-76
2021/08/20 06:49:50;;;;;;;47.90;30.10;;;16.70;99.90;;;;;;5095766;28;20044;-76
2021/08/20 06:52:16;;;;;;;48.33;30.15;;;16.60;99.90;;;;;;5094605;28;20127;-76
2021/08/20 06:54:42;;;;;;;47.65;30.55;;;16.60;99.90;;;;;;5095918;28;20043;-75
2021/08/20 06:57:08;;;;;;;44.83;30.52;;;16.60;99.90;;;;;;5095896;28;20032;-76
2021/08/20 06:59:33;;;;;;;48.83;30.27;;;16.50;99.90;;;;;;5095476;28;20047;-76
2021/08/20 07:02:02;;;;;;;48.22;30.23;;;16.50;99.90;;;;;;5095720;28;20040;-76
2021/08/20 07:04:28;;;;;;;48.22;28.58;;;16.50;99.90;;;;;;5095637;28;20040;-76
2021/08/20 07:06:57;;;;;;;52.10;29.60;;;16.50;99.90;;;;;;5095696;28;20505;-76
2021/08/20 07:09:24;;;;;;;48.97;30.80;;;16.60;99.90;;;;;;5095348;28;20377;-76
2021/08/20 07:11:51;;;;;;;45.65;28.88;;;16.60;99.90;;;;;;5094376;28;20028;-76
2021/08/20 07:14:17;;;;;;;46.20;30.15;;;16.70;99.90;;;;;;5095312;28;20042;-76
2021/08/20 07:16:43;;;;;;;42.72;29.73;;;16.70;99.90;;;;;;5096126;28;20372;-76
2021/08/20 07:19:08;;;;;;;45.25;29.85;;;16.70;99.90;;;;;;5095183;28;20381;-76
2021/08/20 07:21:34;;;;;;;39.70;27.83;;;16.80;99.90;;;;;;5095735;28;20051;-76
2021/08/20 07:23:59;;;;;;;51.08;31.40;;;16.80;99.90;;;;;;5095442;28;20035;-75
2021/08/20 07:26:25;;;;;;;40.58;28.63;;;16.80;99.90;;;;;;5095541;28;20122;-75
2021/08/20 07:28:51;;;;;;;44.70;28.92;;;16.90;99.90;;;;;;5095289;28;20066;-76
2021/08/20 07:31:16;;;;;;;44.85;29.42;;;16.90;99.90;;;;;;5094823;28;20483;-76
2021/08/20 07:33:42;;;;;;;48.45;30.73;;;16.90;99.90;;;;;;5095571;28;20040;-75
2021/08/20 07:36:08;;;;;;;44.90;30.38;;;16.90;99.90;;;;;;5095080;28;20484;-75
2021/08/20 07:38:33;;;;;;;38.90;26.15;;;17.00;99.90;;;;;;5095153;28;20039;-76
2021/08/20 07:40:59;;;;;;;39.05;28.35;;;17.10;99.90;;;;;;5094826;28;20036;-75
2021/08/20 07:43:25;;;;;;;42.03;28.08;;;17.40;99.90;;;;;;5095182;28;20044;-75
2021/08/20 07:45:50;;;;;;;46.88;29.30;;;17.70;99.90;;;;;;5095099;28;20032;-75
2021/08/20 07:48:17;;;;;;;36.42;26.73;;;17.90;99.90;;;;;;5095022;28;20040;-75
2021/08/20 07:50:46;;;;;;;42.30;28.48;;;18.10;99.90;;;;;;5094492;28;20051;-75
2021/08/20 07:53:15;;;;;;;39.38;26.45;;;18.30;99.90;;;;;;5094736;28;20036;-76
2021/08/20 07:55:41;;;;;;;38.25;27.88;;;18.30;99.90;;;;;;5095168;28;20044;-75
2021/08/20 07:58:07;;;;;;;39.17;25.63;;;18.40;99.90;;;;;;5094647;28;20153;-75
2021/08/20 08:00:33;;;;;;;39.40;26.08;;;18.60;99.90;;;;;;5094129;28;20032;-75
2021/08/20 08:03:00;;;;;;;38.00;26.27;;;18.80;99.90;;;;;;5094508;28;20462;-75
2021/08/20 08:05:26;;;;;;;35.25;24.45;;;19.00;99.90;;;;;;5095046;28;20040;-75
2021/08/20 08:07:54;;;;;;;32.90;23.13;;;19.10;99.90;;;;;;5094565;28;20052;-75
2021/08/20 08:10:21;;;;;;;37.80;25.48;;;19.20;99.90;;;;;;5094114;28;20412;-76
2021/08/20 08:12:49;;;;;;;33.38;24.98;;;19.10;99.90;;;;;;5094537;28;20047;-75
2021/08/20 08:15:14;;;;;;;37.25;24.92;;;19.10;99.90;;;;;;5095036;28;20054;-75
2021/08/20 08:17:40;;;;;;;32.60;24.17;;;19.10;99.90;;;;;;5094203;28;20508;-76
2021/08/20 08:20:10;;;;;;;32.85;23.17;;;19.00;99.90;;;;;;5093869;28;20036;-76
2021/08/20 08:22:36;;;;;;;33.95;23.52;;;19.00;99.90;;;;;;5094142;28;20040;-75
2021/08/20 08:25:03;;;;;;;32.88;21.17;;;19.00;99.90;;;;;;5094158;28;20442;-75
2021/08/20 08:27:29;;;;;;;26.45;20.63;;;19.10;99.90;;;;;;5094292;28;20046;-75
2021/08/20 08:29:55;;;;;;;30.55;21.35;;;19.00;99.90;;;;;;5093707;28;20119;-75
2021/08/20 08:32:21;;;;;;;31.48;19.98;;;19.00;99.90;;;;;;5094025;28;20510;-75
2021/08/20 08:34:46;;;;;;;25.55;18.45;;;19.10;99.90;;;;;;5094044;28;20036;-75
2021/08/20 08:37:12;;;;;;;27.27;18.95;;;19.20;99.90;;;;;;5093965;28;20494;-75
2021/08/20 08:39:38;;;;;;;29.35;19.83;;;19.30;99.90;;;;;;5093522;28;20075;-75
2021/08/20 08:42:05;;;;;;;27.13;18.35;;;19.30;99.90;;;;;;5092854;28;20036;-74
2021/08/20 08:44:31;;;;;;;22.52;17.75;;;19.20;99.90;;;;;;5093842;28;20047;-74
2021/08/20 08:46:58;;;;;;;31.17;17.90;;;19.10;99.90;;;;;;5093945;28;20036;-75
2021/08/20 08:49:24;;;;;;;23.67;18.05;;;19.20;99.90;;;;;;5093598;28;20118;-75
2021/08/20 08:51:50;;;;;;;23.10;17.92;;;19.30;99.90;;;;;;5093665;28;20519;-75
2021/08/20 08:54:16;;;;;;;24.90;17.73;;;19.40;99.90;;;;;;5094070;28;20040;-75
2021/08/20 08:56:46;;;;;;;26.20;18.00;;;19.80;99.90;;;;;;5093877;28;20119;-74
2021/08/20 08:59:12;;;;;;;22.88;18.88;;;19.90;99.90;;;;;;5093265;28;20089;-75
2021/08/20 09:01:38;;;;;;;25.23;17.83;;;20.00;99.90;;;;;;5093495;28;20042;-75
2021/08/20 09:04:21;;;;;;;29.75;21.65;;;19.90;99.90;;;;;;5093528;28;20036;-75
2021/08/20 09:06:52;;;;;;;25.90;20.58;;;19.70;99.90;;;;;;5093962;28;20074;-75
2021/08/20 09:09:23;;;;;;;26.00;20.13;;;19.50;99.90;;;;;;5093315;28;20072;-75
2021/08/20 09:12:06;;;;;;;27.58;19.52;;;19.30;99.90;;;;;;5093645;28;20040;-75
2021/08/20 09:14:36;;;;;;;30.40;21.20;;;19.10;99.90;;;;;;5093434;28;20032;-75
2021/08/20 09:17:03;;;;;;;27.52;21.52;;;19.00;99.90;;;;;;5075868;28;20372;-75
2021/08/20 09:19:30;;;;;;;28.45;20.77;;;18.90;99.90;;;;;;5072721;28;20043;-75
2021/08/20 09:22:07;;;;;;;29.85;21.77;;;18.80;99.90;;;;;;5072999;28;20139;-75
2021/08/20 09:24:37;;;;;;;25.83;21.70;;;18.90;99.90;;;;;;5073163;28;20040;-74
2021/08/20 09:27:18;;;;;;;29.23;21.02;;;18.90;99.90;;;;;;5073117;28;20032;-75
2021/08/20 09:30:14;;;;;;;29.08;21.60;;;19.00;99.90;;;;;;5072655;28;20455;-75
2021/08/20 09:32:54;;;;;;;28.65;21.48;;;19.10;99.90;;;;;;5072849;28;20036;-75
2021/08/20 09:35:20;;;;;;;25.40;21.35;;;19.20;99.90;;;;;;5072989;28;20037;-75
2021/08/20 09:37:46;;;;;;;28.33;20.30;;;19.20;99.90;;;;;;5072788;28;20413;-75
2021/08/20 09:40:15;;;;;;;25.13;19.92;;;19.20;99.90;;;;;;5072406;28;20037;-75
2021/08/20 09:42:41;;;;;;;25.27;20.00;;;19.30;99.90;;;;;;5072958;28;20041;-75
2021/08/20 09:45:19;;;;;;;24.92;19.40;;;19.40;99.90;;;;;;5072955;28;20503;-75
2021/08/20 09:47:53;;;;;;;23.50;19.92;;;19.40;99.90;;;;;;5073129;28;20059;-76
2021/08/20 09:50:21;;;;;;;24.80;18.92;;;19.50;99.90;;;;;;5072498;28;20408;-75
2021/08/20 09:52:47;;;;;;;26.20;20.02;;;19.50;99.90;;;;;;5073454;28;20387;-75
2021/08/20 09:55:33;;;;;;;26.10;20.80;;;19.40;99.90;;;;;;5076692;28;20040;-75
2021/08/20 09:58:01;;;;;;;31.40;21.65;;;19.40;99.90;;;;;;5076761;28;20047;-75
2021/08/20 10:00:31;;;;;;;25.35;20.77;;;19.40;99.90;;;;;;5076291;28;20079;-75
2021/08/20 10:02:57;;;;;;;26.35;20.67;;;19.30;99.90;;;;;;5077031;28;20068;-75
2021/08/20 10:05:24;;;;;;;31.42;23.25;;;19.30;99.90;;;;;;5076670;28;20416;-75
2021/08/20 10:07:53;;;;;;;29.13;21.83;;;19.50;99.90;;;;;;5076566;28;20496;-76
2021/08/20 10:10:19;;;;;;;27.98;21.13;;;19.70;99.90;;;;;;5076061;28;20485;-76
2021/08/20 10:12:47;;;;;;;32.47;22.30;;;19.80;99.90;;;;;;5076577;28;20477;-75
2021/08/20 10:15:13;;;;;;;29.48;20.92;;;19.90;99.90;;;;;;5075328;28;20098;-75
2021/08/20 10:17:39;;;;;;;30.55;22.45;;;19.90;99.90;;;;;;5076372;28;20040;-76
2021/08/20 10:20:05;;;;;;;30.90;22.33;;;19.90;99.90;;;;;;5076152;28;20040;-76
2021/08/20 10:22:31;;;;;;;33.17;22.08;;;20.00;99.90;;;;;;5076608;28;20044;-76
2021/08/20 10:24:59;;;;;;;25.35;20.85;;;20.00;99.90;;;;;;5076280;28;20410;-75
2021/08/20 10:27:25;;;;;;;28.80;21.17;;;20.00;99.90;;;;;;5076039;28;20542;-75
2021/08/20 10:29:52;;;;;;;26.90;20.05;;;20.20;99.90;;;;;;5075765;28;20036;-75
2021/08/20 10:32:18;;;;;;;28.08;19.48;;;20.40;99.90;;;;;;5076145;28;20060;-75
2021/08/20 10:34:44;;;;;;;26.30;20.55;;;20.60;99.90;;;;;;5076285;28;20037;-75
2021/08/20 10:37:13;;;;;;;27.42;18.98;;;20.50;99.90;;;;;;5075920;28;20488;-74
2021/08/20 10:39:42;;;;;;;26.83;20.05;;;20.50;99.90;;;;;;5075700;28;20048;-75
2021/08/20 10:42:15;;;;;;;27.08;20.70;;;20.50;99.90;;;;;;5075792;28;20040;-74
2021/08/20 10:44:42;;;;;;;;;;;20.50;99.90;;;;;;5076293;28;20059;-76
2021/08/20 10:47:19;;;;;;;28.52;19.02;;;20.60;99.90;;;;;;5075776;28;19916;-76
2021/08/20 10:49:46;;;;;;;25.73;17.90;;;20.80;99.90;;;;;;5085412;28;20036;-76
2021/08/20 10:52:24;;;;;;;27.55;19.88;;;20.80;99.90;;;;;;5083917;28;20052;-76
2021/08/20 10:54:52;;;;;;;28.63;18.85;;;20.70;99.90;;;;;;5085544;28;20472;-76
2021/08/20 10:57:55;;;;;;;23.60;18.08;;;20.60;99.90;;;;;;5080494;28;20159;-75
2021/08/20 11:00:21;;;;;;;30.02;19.65;;;20.50;99.90;;;;;;5075329;28;20044;-76
2021/08/20 11:02:48;;;;;;;26.10;18.38;;;20.40;99.90;;;;;;5075597;28;20094;-76
2021/08/20 11:05:14;;;;;;;28.00;17.30;;;20.50;99.90;;;;;;5074705;28;20036;-76
2021/08/20 11:07:43;;;;;;;21.08;16.85;;;20.70;99.90;;;;;;5075969;28;20059;-76
2021/08/20 11:10:09;;;;;;;22.15;17.35;;;20.80;99.90;;;;;;5075172;28;20121;-76
2021/08/20 11:12:42;;;;;;;26.58;17.50;;;20.70;99.90;;;;;;5075767;28;20108;-75
2021/08/20 11:15:17;;;;;;;21.23;17.10;;;20.80;99.90;;;;;;5075303;28;20044;-75
2021/08/20 11:17:49;;;;;;;21.20;16.88;;;20.80;99.90;;;;;;5075357;28;20040;-76
2021/08/20 11:20:20;;;;;;;23.35;16.02;;;20.70;99.90;;;;;;5075063;28;20079;-75
2021/08/20 11:25:39;;;;;;;22.38;16.60;;;20.60;99.90;;;;;;5075241;28;20086;-76
2021/08/20 11:28:17;;;;;;;24.38;16.23;;;20.70;99.90;;;;;;5075127;28;20115;-76
2021/08/20 11:30:44;;;;;;;23.90;15.65;;;20.70;99.90;;;;;;5074555;28;20166;-75
2021/08/20 11:33:18;;;;;;;21.30;16.38;;;20.70;99.90;;;;;;5075007;28;20090;-76
2021/08/20 11:35:47;;;;;;;19.42;14.75;;;20.60;99.90;;;;;;5074956;28;20111;-76
2021/08/20 11:38:27;;;;;;;18.42;15.77;;;20.60;99.90;;;;;;5074941;28;20484;-75
2021/08/20 11:40:54;;;;;;;22.00;16.60;;;20.60;99.90;;;;;;5074714;28;20512;-76
2021/08/20 11:43:22;;;;;;;21.67;14.88;;;20.50;99.90;;;;;;5075009;28;20455;-75
2021/08/20 11:45:53;;;;;;;21.33;14.70;;;20.50;99.90;;;;;;5074646;28;20093;-76
2021/08/20 11:48:19;;;;;;;24.30;15.15;;;20.40;99.90;;;;;;5074641;28;20047;-75
2021/08/20 11:50:46;;;;;;;19.05;14.43;;;20.30;99.90;;;;;;5074271;28;20120;-76
2021/08/20 11:53:18;;;;;;;18.10;14.45;;;20.40;99.90;;;;;;5073643;28;20457;-75
2021/08/20 11:55:44;;;;;;;19.27;13.95;;;20.40;99.90;;;;;;5074816;28;20115;-75
2021/08/20 11:58:26;;;;;;;16.63;12.88;;;20.40;99.90;;;;;;5074957;28;20460;-74
2021/08/20 12:00:52;;;;;;;17.80;12.85;;;20.50;99.90;;;;;;5074313;28;20041;-75
2021/08/20 12:03:18;;;;;;;18.30;13.27;;;20.50;99.90;;;;;;5074266;28;20040;-75
2021/08/20 12:05:43;;;;;;;15.45;12.88;;;20.40;99.90;;;;;;5074330;28;20435;-75
2021/08/20 12:08:14;;;;;;;16.70;13.57;;;20.40;99.90;;;;;;5074682;28;20051;-75
2021/08/20 12:10:43;;;;;;;21.30;13.85;;;20.40;99.90;;;;;;5074022;28;20048;-75
2021/08/20 12:13:13;;;;;;;19.70;15.00;;;20.40;99.90;;;;;;5074201;28;20044;-75
2021/08/20 12:15:40;;;;;;;16.33;13.70;;;20.30;99.90;;;;;;5073766;28;20117;-75
2021/08/20 12:18:27;;;;;;;15.85;12.85;;;20.40;99.90;;;;;;5073758;28;20075;-75
2021/08/20 12:20:55;;;;;;;19.52;12.63;;;20.60;99.90;;;;;;5074007;28;20040;-76
2021/08/20 12:23:21;;;;;;;16.38;13.43;;;20.70;99.90;;;;;;5073951;28;20033;-75
2021/08/20 12:25:48;;;;;;;18.55;13.18;;;20.90;99.90;;;;;;5073879;28;20040;-74
2021/08/20 12:28:16;;;;;;;13.70;11.10;;;20.90;99.90;;;;;;5073688;28;20043;-71
2021/08/20 12:30:43;;;;;;;17.85;11.98;;;20.90;99.90;;;;;;5073409;28;20158;-72
2021/08/20 12:33:09;;;;;;;16.83;11.40;;;20.80;99.90;;;;;;5074406;28;20029;-72